createdAt,value
2022-07-31T00:00:22.704Z,23.60
2022-07-31T00:02:24.435Z,23.60
2022-07-31T00:04:28.255Z,23.60
2022-07-31T00:06:30.117Z,23.60
2022-07-31T00:08:31.853Z,23.60
2022-07-31T00:10:33.890Z,23.60
2022-07-31T00:12:36.136Z,23.60
2022-07-31T00:14:38.283Z,23.60
2022-07-31T00:16:40.076Z,23.50
2022-07-31T00:18:41.871Z,23.60
2022-07-31T00:20:44.545Z,23.50
2022-07-31T00:22:48.063Z,23.50
2022-07-31T00:24:49.989Z,23.50
2022-07-31T00:26:52.947Z,23.50
2022-07-31T00:28:54.894Z,23.50
2022-07-31T00:30:56.657Z,23.50
2022-07-31T00:32:58.634Z,23.50
2022-07-31T00:35:00.745Z,23.50
2022-07-31T00:37:02.979Z,23.50
2022-07-31T00:39:05.184Z,23.50
2022-07-31T00:41:06.957Z,23.50
2022-07-31T00:43:08.762Z,23.50
2022-07-31T00:45:13.362Z,23.40
2022-07-31T00:47:16.268Z,23.40
2022-07-31T00:49:19.019Z,23.50
2022-07-31T00:51:21.014Z,23.40
2022-07-31T00:53:22.950Z,23.40
2022-07-31T00:55:25.588Z,23.40
2022-07-31T00:57:27.393Z,23.40
2022-07-31T00:59:29.857Z,23.40
2022-07-31T01:01:31.864Z,23.40
2022-07-31T01:03:34.316Z,23.30
2022-07-31T01:05:36.352Z,23.40
2022-07-31T01:07:48.825Z,23.30
2022-07-31T01:09:53.610Z,23.40
2022-07-31T01:12:06.286Z,23.40
2022-07-31T01:14:09.442Z,23.40
2022-07-31T01:16:12.724Z,23.30
2022-07-31T01:18:16.858Z,23.30
2022-07-31T01:20:19.033Z,23.30
2022-07-31T01:22:59.057Z,23.30
2022-07-31T01:25:24.436Z,23.40
2022-07-31T01:27:55.742Z,23.40
2022-07-31T01:30:30.821Z,23.30
2022-07-31T01:32:38.198Z,23.30
2022-07-31T01:34:45.655Z,23.30
2022-07-31T01:37:00.871Z,23.30
2022-07-31T01:39:04.471Z,23.30
2022-07-31T01:41:10.553Z,23.30
2022-07-31T01:43:22.061Z,23.30
2022-07-31T01:45:26.379Z,23.30
2022-07-31T01:47:30.723Z,23.30
2022-07-31T01:49:33.400Z,23.30
2022-07-31T01:51:39.105Z,23.20
2022-07-31T01:53:43.755Z,23.20
2022-07-31T01:56:02.959Z,23.20
2022-07-31T01:58:10.326Z,23.20
2022-07-31T02:00:18.815Z,23.20
2022-07-31T02:02:36.289Z,23.20
2022-07-31T02:04:47.132Z,23.20
2022-07-31T02:06:50.863Z,23.20
2022-07-31T02:08:55.267Z,23.20
2022-07-31T02:10:59.216Z,23.20
2022-07-31T02:13:02.844Z,23.20
2022-07-31T02:15:09.827Z,23.20
2022-07-31T02:17:15.171Z,23.20
2022-07-31T02:19:59.823Z,23.20
2022-07-31T02:22:03.163Z,23.20
2022-07-31T02:24:06.784Z,23.20
2022-07-31T02:26:09.838Z,23.10
2022-07-31T02:28:15.224Z,23.10
2022-07-31T02:30:18.835Z,23.10
2022-07-31T02:32:25.204Z,23.10
2022-07-31T02:34:29.144Z,23.10
2022-07-31T02:36:34.648Z,23.10
2022-07-31T02:38:37.768Z,23.10
2022-07-31T02:40:42.356Z,23.10
2022-07-31T02:42:46.783Z,23.10
2022-07-31T02:44:49.818Z,23.10
2022-07-31T02:46:52.081Z,23.10
2022-07-31T02:48:55.050Z,23.10
2022-07-31T02:50:59.292Z,23.00
2022-07-31T02:53:01.938Z,23.00
2022-07-31T02:55:04.503Z,23.00
2022-07-31T02:57:06.645Z,23.00
2022-07-31T02:59:09.830Z,23.00
2022-07-31T03:01:34.939Z,23.00
2022-07-31T03:03:37.133Z,23.00
2022-07-31T03:05:39.135Z,23.00
2022-07-31T03:07:41.094Z,23.00
2022-07-31T03:09:43.148Z,23.00
2022-07-31T03:12:04.666Z,23.00
2022-07-31T03:14:10.383Z,23.00
2022-07-31T03:16:13.054Z,23.00
2022-07-31T03:18:16.403Z,23.00
2022-07-31T03:20:21.459Z,23.00
2022-07-31T03:22:24.052Z,23.00
2022-07-31T03:24:27.056Z,23.00
2022-07-31T03:26:29.182Z,22.90
2022-07-31T03:28:31.240Z,23.00
2022-07-31T03:30:33.068Z,22.90
2022-07-31T03:32:36.532Z,22.90
2022-07-31T03:34:38.364Z,22.90
2022-07-31T03:36:40.730Z,22.90
2022-07-31T03:38:45.557Z,22.90
2022-07-31T03:40:59.383Z,22.90
2022-07-31T03:43:03.440Z,22.90
2022-07-31T03:45:07.330Z,22.80
2022-07-31T03:47:09.274Z,22.80
2022-07-31T03:49:12.779Z,22.80
2022-07-31T03:51:16.039Z,22.80
2022-07-31T03:53:18.914Z,22.80
2022-07-31T03:55:21.465Z,22.80
2022-07-31T03:57:28.720Z,22.80
2022-07-31T03:59:37.216Z,22.80
2022-07-31T04:01:57.977Z,22.80
2022-07-31T04:04:18.069Z,22.80
2022-07-31T04:06:40.483Z,22.80
2022-07-31T04:08:42.912Z,22.70
2022-07-31T04:10:44.709Z,22.70
2022-07-31T04:12:49.424Z,22.70
2022-07-31T04:14:52.577Z,22.70
2022-07-31T04:16:54.564Z,22.70
2022-07-31T04:18:57.534Z,22.70
2022-07-31T04:20:59.954Z,22.70
2022-07-31T04:23:03.890Z,22.60
2022-07-31T04:25:27.633Z,22.60
2022-07-31T04:27:58.039Z,22.60
2022-07-31T04:30:00.784Z,22.60
2022-07-31T04:32:06.243Z,22.60
2022-07-31T04:34:17.515Z,22.60
2022-07-31T04:36:30.682Z,22.60
2022-07-31T04:38:34.702Z,22.60
2022-07-31T04:40:36.500Z,22.60
2022-07-31T04:42:38.275Z,22.60
2022-07-31T04:44:40.109Z,22.60
2022-07-31T04:46:43.850Z,22.60
2022-07-31T04:48:46.103Z,22.70
2022-07-31T04:50:51.146Z,22.70
2022-07-31T04:52:53.031Z,22.70
2022-07-31T04:54:55.906Z,22.70
2022-07-31T04:56:57.889Z,22.70
2022-07-31T04:59:02.197Z,22.70
2022-07-31T05:01:04.259Z,22.70
2022-07-31T05:03:06.167Z,22.70
2022-07-31T05:05:08.504Z,22.80
2022-07-31T05:07:13.618Z,22.80
2022-07-31T05:09:19.145Z,22.80
2022-07-31T05:11:24.975Z,22.80
2022-07-31T05:13:26.841Z,22.80
2022-07-31T05:15:28.575Z,22.80
2022-07-31T05:17:31.644Z,22.90
2022-07-31T05:19:59.816Z,22.90
2022-07-31T05:22:24.195Z,22.80
2022-07-31T05:24:44.137Z,22.90
2022-07-31T05:26:46.847Z,22.90
2022-07-31T05:28:49.633Z,22.90
2022-07-31T05:30:51.879Z,22.90
2022-07-31T05:32:53.719Z,22.90
2022-07-31T05:34:55.557Z,22.90
2022-07-31T05:37:01.674Z,22.90
2022-07-31T05:39:06.100Z,23.00
2022-07-31T05:41:08.745Z,23.00
2022-07-31T05:43:30.844Z,22.90
2022-07-31T05:45:48.883Z,23.00
2022-07-31T05:47:50.668Z,23.00
2022-07-31T05:49:52.442Z,22.90
2022-07-31T05:51:56.916Z,23.00
2022-07-31T05:53:58.882Z,23.00
2022-07-31T05:56:19.664Z,23.00
2022-07-31T05:58:24.754Z,23.00
2022-07-31T06:00:28.271Z,23.00
2022-07-31T06:02:31.518Z,23.00
2022-07-31T06:04:42.527Z,23.00
2022-07-31T06:06:44.297Z,23.00
2022-07-31T06:08:46.782Z,23.00
2022-07-31T06:10:48.990Z,23.10
2022-07-31T06:12:51.108Z,23.10
2022-07-31T06:14:53.104Z,23.10
2022-07-31T06:17:07.681Z,23.20
2022-07-31T06:19:11.427Z,23.20
2022-07-31T06:23:22.543Z,23.30
2022-07-31T06:25:31.952Z,23.30
2022-07-31T06:27:41.988Z,23.30
2022-07-31T06:29:43.966Z,23.40
2022-07-31T06:31:47.626Z,23.40
2022-07-31T06:33:50.241Z,23.40
2022-07-31T06:35:54.985Z,23.50
2022-07-31T06:38:25.867Z,23.50
2022-07-31T06:40:46.682Z,23.60
2022-07-31T06:43:03.755Z,23.70
2022-07-31T06:45:48.906Z,23.80
2022-07-31T06:48:13.661Z,23.80
2022-07-31T06:50:21.147Z,23.90
2022-07-31T06:52:29.840Z,23.90
2022-07-31T06:54:31.658Z,24.00
2022-07-31T06:56:34.724Z,24.00
2022-07-31T06:58:36.515Z,24.00
2022-07-31T07:00:38.511Z,24.00
2022-07-31T07:02:40.305Z,24.10
2022-07-31T07:05:05.241Z,24.00
2022-07-31T07:07:05.246Z,24.00
2022-07-31T07:09:07.301Z,24.00
2022-07-31T07:11:12.431Z,24.10
2022-07-31T07:13:15.145Z,24.10
2022-07-31T07:15:36.352Z,24.10
2022-07-31T07:17:39.428Z,24.20
2022-07-31T07:19:54.619Z,24.20
2022-07-31T07:21:57.272Z,24.20
2022-07-31T07:23:59.141Z,24.20
2022-07-31T07:26:09.910Z,24.20
2022-07-31T07:28:15.202Z,24.20
2022-07-31T07:30:34.568Z,24.20
2022-07-31T07:32:37.672Z,24.20
2022-07-31T07:34:39.596Z,24.20
2022-07-31T07:36:42.225Z,24.20
2022-07-31T07:38:49.947Z,24.20
2022-07-31T07:40:54.066Z,24.20
2022-07-31T07:42:59.965Z,24.20
2022-07-31T07:45:07.856Z,24.20
2022-07-31T07:47:09.936Z,24.20
2022-07-31T07:49:11.896Z,24.30
2022-07-31T07:51:21.175Z,24.30
2022-07-31T07:53:29.458Z,24.40
2022-07-31T07:55:49.783Z,24.40
2022-07-31T07:58:26.609Z,24.40
2022-07-31T08:00:48.559Z,24.40
2022-07-31T08:03:46.787Z,24.40
2022-07-31T08:05:16.103Z,24.50
2022-07-31T08:07:41.872Z,24.50
2022-07-31T08:10:18.697Z,24.60
2022-07-31T08:12:28.976Z,24.60
2022-07-31T08:14:51.284Z,24.60
2022-07-31T08:17:12.993Z,24.70
2022-07-31T08:19:15.424Z,24.80
2022-07-31T08:21:17.654Z,24.80
2022-07-31T08:23:19.445Z,24.90
2022-07-31T08:25:21.385Z,25.00
2022-07-31T08:27:24.067Z,25.00
2022-07-31T08:29:43.424Z,25.10
2022-07-31T08:31:51.950Z,25.20
2022-07-31T08:34:12.927Z,25.20
2022-07-31T08:36:33.463Z,25.30
2022-07-31T08:38:39.188Z,25.40
2022-07-31T08:41:13.663Z,25.40
2022-07-31T08:45:40.451Z,25.50
2022-07-31T08:47:57.037Z,25.60
2022-07-31T08:50:05.527Z,25.60
2022-07-31T08:52:21.466Z,25.70
2022-07-31T08:54:44.069Z,25.80
2022-07-31T08:56:47.085Z,25.90
2022-07-31T08:58:49.611Z,25.90
2022-07-31T09:00:51.780Z,26.00
2022-07-31T09:02:55.031Z,26.10
2022-07-31T09:05:25.305Z,26.20
2022-07-31T09:07:29.154Z,26.30
2022-07-31T09:09:41.060Z,26.30
2022-07-31T09:11:56.650Z,26.40
2022-07-31T09:14:30.068Z,26.50
2022-07-31T09:16:44.101Z,26.60
2022-07-31T09:18:58.596Z,26.70
2022-07-31T09:21:02.686Z,26.80
2022-07-31T09:23:06.826Z,26.80
2022-07-31T09:25:15.951Z,26.80
2022-07-31T09:27:18.590Z,26.90
2022-07-31T09:29:32.595Z,26.90
2022-07-31T09:31:35.696Z,27.00
2022-07-31T09:33:59.579Z,27.20
2022-07-31T09:36:24.951Z,27.20
2022-07-31T09:38:39.445Z,27.40
2022-07-31T09:41:56.734Z,27.50
2022-07-31T09:43:56.007Z,27.70
2022-07-31T09:46:01.745Z,27.80
2022-07-31T09:48:17.070Z,27.80
2022-07-31T09:50:28.456Z,27.90
2022-07-31T09:52:32.047Z,28.00
2022-07-31T09:54:34.071Z,28.10
2022-07-31T09:56:44.991Z,28.10
2022-07-31T09:58:47.190Z,28.10
2022-07-31T10:00:53.404Z,28.10
2022-07-31T10:02:56.764Z,28.00
2022-07-31T10:05:00.537Z,28.00
2022-07-31T10:07:02.860Z,28.10
2022-07-31T10:09:32.739Z,28.10
2022-07-31T10:11:58.600Z,28.20
2022-07-31T10:14:03.023Z,28.20
2022-07-31T10:16:06.635Z,28.30
2022-07-31T10:18:44.100Z,28.40
2022-07-31T10:21:06.432Z,28.40
2022-07-31T10:23:29.089Z,28.50
2022-07-31T10:25:31.709Z,28.50
2022-07-31T10:27:39.591Z,28.50
2022-07-31T10:29:45.429Z,28.50
2022-07-31T10:31:47.695Z,28.60
2022-07-31T10:33:50.088Z,28.70
2022-07-31T10:36:32.804Z,28.80
2022-07-31T10:38:56.024Z,28.90
2022-07-31T10:41:34.576Z,29.00
2022-07-31T10:43:51.400Z,28.90
2022-07-31T10:46:04.065Z,28.90
2022-07-31T10:48:18.425Z,29.00
2022-07-31T10:50:42.193Z,29.00
2022-07-31T10:53:12.786Z,29.00
2022-07-31T10:56:13.705Z,29.00
2022-07-31T10:58:35.124Z,29.10
2022-07-31T11:01:08.070Z,29.10
2022-07-31T11:03:44.208Z,29.20
2022-07-31T11:06:16.241Z,29.20
2022-07-31T11:08:48.209Z,29.30
2022-07-31T11:11:09.082Z,29.30
2022-07-31T11:13:33.653Z,29.40
2022-07-31T11:15:52.433Z,29.50
2022-07-31T11:18:35.805Z,29.50
2022-07-31T11:20:43.111Z,29.60
2022-07-31T11:23:00.508Z,29.60
2022-07-31T11:25:02.284Z,29.60
2022-07-31T11:27:04.387Z,29.80
2022-07-31T11:29:59.630Z,29.80
2022-07-31T11:31:30.077Z,29.80
2022-07-31T11:33:43.055Z,30.00
2022-07-31T11:35:45.220Z,30.00
2022-07-31T11:37:57.796Z,30.10
2022-07-31T11:39:59.984Z,30.10
2022-07-31T11:42:07.580Z,30.20
2022-07-31T11:44:09.743Z,30.20
2022-07-31T11:46:11.941Z,30.20
2022-07-31T11:48:18.996Z,30.30
2022-07-31T11:50:21.353Z,30.40
2022-07-31T11:52:31.193Z,30.40
2022-07-31T11:54:39.633Z,30.40
2022-07-31T11:56:41.449Z,30.40
2022-07-31T11:58:51.637Z,30.40
2022-07-31T12:01:00.513Z,30.50
2022-07-31T12:05:48.503Z,30.50
2022-07-31T12:07:50.359Z,30.70
2022-07-31T12:10:02.027Z,30.70
2022-07-31T12:12:06.272Z,30.70
2022-07-31T12:14:08.157Z,30.70
2022-07-31T12:16:11.124Z,30.70
2022-07-31T12:18:13.102Z,30.80
2022-07-31T12:20:29.788Z,30.80
2022-07-31T12:22:37.626Z,30.80
2022-07-31T12:24:39.657Z,30.90
2022-07-31T12:26:48.790Z,30.90
2022-07-31T12:29:08.852Z,30.90
2022-07-31T12:31:10.672Z,30.90
2022-07-31T12:33:13.464Z,31.00
2022-07-31T12:35:15.447Z,31.00
2022-07-31T12:37:19.355Z,31.00
2022-07-31T12:39:21.316Z,31.00
2022-07-31T12:41:23.292Z,31.10
2022-07-31T12:43:25.070Z,31.10
2022-07-31T12:45:37.565Z,31.10
2022-07-31T12:47:40.051Z,31.20
2022-07-31T12:49:41.933Z,31.20
2022-07-31T12:51:45.206Z,31.20
2022-07-31T12:53:49.665Z,31.10
2022-07-31T12:55:51.665Z,31.10
2022-07-31T12:57:53.603Z,31.10
2022-07-31T12:59:55.618Z,31.20
2022-07-31T13:01:57.425Z,31.20
2022-07-31T13:04:00.024Z,31.30
2022-07-31T13:06:05.248Z,31.30
2022-07-31T13:08:08.735Z,31.40
2022-07-31T13:10:19.910Z,31.50
2022-07-31T13:12:26.493Z,31.60
2022-07-31T13:14:28.445Z,31.70
2022-07-31T13:16:30.425Z,31.70
2022-07-31T13:18:32.794Z,31.70
2022-07-31T13:20:34.850Z,31.80
2022-07-31T13:22:36.638Z,31.80
2022-07-31T13:24:38.399Z,31.90
2022-07-31T13:26:42.056Z,31.90
2022-07-31T13:28:44.009Z,31.90
2022-07-31T13:30:46.036Z,32.00
2022-07-31T13:32:47.770Z,32.00
2022-07-31T13:34:49.505Z,32.00
2022-07-31T13:37:11.519Z,32.00
2022-07-31T13:39:13.606Z,32.10
2022-07-31T13:41:23.795Z,32.10
2022-07-31T13:43:25.764Z,32.10
2022-07-31T13:45:27.515Z,32.20
2022-07-31T13:47:50.705Z,32.30
2022-07-31T13:49:51.190Z,32.30
2022-07-31T13:51:52.965Z,32.40
2022-07-31T13:53:54.818Z,32.40
2022-07-31T13:55:58.703Z,32.50
2022-07-31T13:58:02.173Z,32.50
2022-07-31T14:00:04.689Z,32.60
2022-07-31T14:02:07.128Z,32.60
2022-07-31T14:04:12.789Z,32.60
2022-07-31T14:06:21.066Z,32.70
2022-07-31T14:08:29.889Z,32.60
2022-07-31T14:10:35.178Z,32.60
2022-07-31T14:12:37.447Z,32.60
2022-07-31T14:14:39.266Z,32.60
2022-07-31T14:16:41.896Z,32.50
2022-07-31T14:18:43.792Z,32.40
2022-07-31T14:20:46.346Z,32.40
2022-07-31T14:22:48.477Z,32.30
2022-07-31T14:24:51.490Z,32.30
2022-07-31T14:26:53.622Z,32.30
2022-07-31T14:28:55.494Z,32.30
2022-07-31T14:30:57.370Z,32.30
2022-07-31T14:33:00.273Z,32.30
2022-07-31T14:35:07.758Z,32.30
2022-07-31T14:37:10.328Z,32.20
2022-07-31T14:39:12.284Z,32.20
2022-07-31T14:41:14.219Z,32.20
2022-07-31T14:43:16.099Z,32.20
2022-07-31T14:45:17.923Z,32.20
2022-07-31T14:47:20.162Z,32.10
2022-07-31T14:49:24.646Z,32.10
2022-07-31T14:51:26.478Z,32.00
2022-07-31T14:53:28.380Z,32.00
2022-07-31T14:55:30.349Z,32.00
2022-07-31T14:57:32.167Z,32.10
2022-07-31T14:59:34.251Z,32.10
2022-07-31T15:01:36.079Z,32.20
2022-07-31T15:03:38.516Z,32.20
2022-07-31T15:06:39.223Z,32.20
2022-07-31T15:08:04.048Z,32.20
2022-07-31T15:10:06.797Z,32.20
2022-07-31T15:12:09.119Z,32.20
2022-07-31T15:14:11.382Z,32.30
2022-07-31T15:16:13.756Z,32.20
2022-07-31T15:18:15.530Z,32.30
2022-07-31T15:20:17.260Z,32.20
2022-07-31T15:22:19.453Z,32.20
2022-07-31T15:24:22.186Z,32.20
2022-07-31T15:26:23.956Z,32.20
2022-07-31T15:28:27.958Z,32.20
2022-07-31T15:30:29.845Z,32.10
2022-07-31T15:32:31.617Z,32.20
2022-07-31T15:34:35.499Z,32.20
2022-07-31T15:36:37.596Z,32.20
2022-07-31T15:38:41.577Z,32.20
2022-07-31T15:40:43.527Z,32.20
2022-07-31T15:42:47.280Z,32.30
2022-07-31T15:44:49.125Z,32.20
2022-07-31T15:46:51.209Z,32.20
2022-07-31T15:48:53.004Z,32.20
2022-07-31T15:50:54.780Z,32.10
2022-07-31T15:52:56.551Z,32.10
2022-07-31T15:54:58.446Z,32.10
2022-07-31T15:57:01.426Z,32.00
2022-07-31T15:59:09.271Z,32.00
2022-07-31T16:01:13.653Z,32.00
2022-07-31T16:03:18.130Z,32.00
2022-07-31T16:05:23.982Z,32.00
2022-07-31T16:08:28.475Z,32.00
2022-07-31T16:10:00.992Z,32.00
2022-07-31T16:12:16.828Z,32.00
2022-07-31T16:14:18.914Z,32.00
2022-07-31T16:16:23.435Z,32.00
2022-07-31T16:18:25.172Z,32.00
2022-07-31T16:20:27.412Z,32.00
2022-07-31T16:22:29.301Z,32.00
2022-07-31T16:24:31.042Z,31.90
2022-07-31T16:26:34.911Z,31.90
2022-07-31T16:28:36.712Z,31.80
2022-07-31T16:30:38.478Z,31.70
2022-07-31T16:32:40.499Z,31.60
2022-07-31T16:34:42.203Z,31.50
2022-07-31T16:36:48.112Z,31.40
2022-07-31T16:39:18.533Z,31.40
2022-07-31T16:41:14.172Z,31.30
2022-07-31T16:43:49.201Z,31.20
2022-07-31T16:45:37.831Z,31.20
2022-07-31T16:47:50.858Z,31.10
2022-07-31T16:50:00.383Z,31.10
2022-07-31T16:52:04.099Z,31.00
2022-07-31T16:54:12.782Z,31.00
2022-07-31T16:56:20.437Z,30.90
2022-07-31T16:58:24.547Z,30.90
2022-07-31T17:00:26.702Z,30.90
2022-07-31T17:02:28.461Z,30.80
2022-07-31T17:04:30.456Z,30.70
2022-07-31T17:06:34.426Z,30.70
2022-07-31T17:08:39.147Z,30.60
2022-07-31T17:10:40.930Z,30.50
2022-07-31T17:12:44.930Z,30.50
2022-07-31T17:14:49.238Z,30.50
2022-07-31T17:16:52.390Z,30.40
2022-07-31T17:18:54.363Z,30.40
2022-07-31T17:20:56.922Z,30.30
2022-07-31T17:22:59.311Z,30.20
2022-07-31T17:25:08.710Z,30.20
2022-07-31T17:27:13.011Z,30.20
2022-07-31T17:29:15.302Z,30.10
2022-07-31T17:31:21.209Z,30.10
2022-07-31T17:33:58.579Z,30.10
2022-07-31T17:35:45.771Z,30.10
2022-07-31T17:37:48.071Z,30.00
2022-07-31T17:39:49.935Z,30.00
2022-07-31T17:41:51.626Z,30.00
2022-07-31T17:43:56.413Z,30.00
2022-07-31T17:46:05.825Z,30.00
2022-07-31T17:48:10.544Z,29.90
2022-07-31T17:50:12.449Z,29.90
2022-07-31T17:52:15.255Z,29.90
2022-07-31T17:54:17.307Z,29.80
2022-07-31T17:56:21.835Z,29.80
2022-07-31T17:58:26.978Z,29.70
2022-07-31T18:00:32.348Z,29.60
2022-07-31T18:02:34.559Z,29.60
2022-07-31T18:04:39.994Z,29.60
2022-07-31T18:06:41.801Z,29.50
2022-07-31T18:08:46.159Z,29.50
2022-07-31T18:10:54.228Z,29.50
2022-07-31T18:13:02.512Z,29.40
2022-07-31T18:15:07.860Z,29.40
2022-07-31T18:17:12.326Z,29.30
2022-07-31T18:19:14.479Z,29.30
2022-07-31T18:21:18.511Z,29.30
2022-07-31T18:23:23.076Z,29.20
2022-07-31T18:25:25.661Z,29.20
2022-07-31T18:27:27.692Z,29.20
2022-07-31T18:29:32.541Z,29.10
2022-07-31T18:31:35.906Z,29.10
2022-07-31T18:33:42.423Z,29.00
2022-07-31T18:35:44.933Z,29.00
2022-07-31T18:37:47.145Z,28.90
2022-07-31T18:39:49.441Z,28.90
2022-07-31T18:41:51.884Z,28.80
2022-07-31T18:43:57.486Z,28.80
2022-07-31T18:46:00.541Z,28.80
2022-07-31T18:48:07.275Z,28.70
2022-07-31T18:50:59.640Z,28.70
2022-07-31T18:52:33.994Z,28.60
2022-07-31T18:54:35.800Z,28.60
2022-07-31T18:56:37.544Z,28.50
2022-07-31T18:58:41.444Z,28.50
2022-07-31T19:00:43.190Z,28.40
2022-07-31T19:02:44.920Z,28.40
2022-07-31T19:04:48.835Z,28.30
2022-07-31T19:06:54.230Z,28.30
2022-07-31T19:08:58.647Z,28.20
2022-07-31T19:11:03.736Z,28.20
2022-07-31T19:13:07.975Z,28.20
2022-07-31T19:15:20.501Z,28.20
2022-07-31T19:17:22.260Z,28.10
2022-07-31T19:19:24.152Z,28.10
2022-07-31T19:21:41.337Z,28.00
2022-07-31T19:23:43.951Z,28.00
2022-07-31T19:26:01.975Z,27.90
2022-07-31T19:28:06.267Z,27.90
2022-07-31T19:30:14.669Z,27.80
2022-07-31T19:32:16.765Z,27.80
2022-07-31T19:34:18.795Z,27.70
2022-07-31T19:36:20.742Z,27.70
2022-07-31T19:38:22.477Z,27.60
2022-07-31T19:40:27.668Z,27.60
2022-07-31T19:42:29.721Z,27.50
2022-07-31T19:44:31.595Z,27.50
2022-07-31T19:46:33.474Z,27.30
2022-07-31T19:48:40.575Z,27.30
2022-07-31T19:50:42.495Z,27.30
2022-07-31T19:52:44.365Z,27.20
2022-07-31T19:54:48.201Z,27.10
2022-07-31T19:56:50.052Z,27.00
2022-07-31T19:58:55.520Z,27.00
2022-07-31T20:00:57.251Z,26.90
2022-07-31T20:02:59.155Z,26.80
2022-07-31T20:05:01.438Z,26.80
2022-07-31T20:07:03.307Z,26.70
2022-07-31T20:09:06.558Z,26.70
2022-07-31T20:11:08.447Z,26.60
2022-07-31T20:13:10.344Z,26.50
2022-07-31T20:15:14.544Z,26.50
2022-07-31T20:17:16.648Z,26.50
2022-07-31T20:19:18.413Z,26.40
2022-07-31T20:21:20.440Z,26.40
2022-07-31T20:23:22.234Z,26.30
2022-07-31T20:25:26.983Z,26.30
2022-07-31T20:27:28.728Z,26.20
2022-07-31T20:29:32.509Z,26.20
2022-07-31T20:31:35.407Z,26.20
2022-07-31T20:33:37.434Z,26.10
2022-07-31T20:35:48.838Z,26.10
2022-07-31T20:37:55.508Z,26.10
2022-07-31T20:40:00.564Z,26.00
2022-07-31T20:42:07.395Z,26.00
2022-07-31T20:44:09.962Z,26.00
2022-07-31T20:46:11.912Z,25.90
2022-07-31T20:48:14.296Z,25.90
2022-07-31T20:50:16.062Z,25.80
2022-07-31T20:52:21.507Z,25.80
2022-07-31T20:54:34.034Z,25.80
2022-07-31T20:56:39.054Z,25.70
2022-07-31T20:58:41.370Z,25.70
2022-07-31T21:00:43.750Z,25.60
2022-07-31T21:02:46.534Z,25.60
2022-07-31T21:04:51.783Z,25.60
2022-07-31T21:06:53.576Z,25.50
2022-07-31T21:08:55.376Z,25.50
2022-07-31T21:10:57.295Z,25.50
2022-07-31T21:13:05.704Z,25.40
2022-07-31T21:15:40.951Z,25.40
2022-07-31T21:17:30.170Z,25.40
2022-07-31T21:19:31.882Z,25.40
2022-07-31T21:21:35.863Z,25.30
2022-07-31T21:23:37.553Z,25.20
2022-07-31T21:25:39.648Z,25.20
2022-07-31T21:27:43.139Z,25.20
2022-07-31T21:29:45.110Z,25.20
2022-07-31T21:31:49.165Z,25.20
2022-07-31T21:33:52.296Z,25.10
2022-07-31T21:35:57.403Z,25.10
2022-07-31T21:37:59.528Z,25.00
2022-07-31T21:40:02.659Z,25.00
2022-07-31T21:42:07.597Z,25.00
2022-07-31T21:44:11.178Z,24.90
2022-07-31T21:46:20.818Z,24.90
2022-07-31T21:48:25.923Z,24.80
2022-07-31T21:50:29.390Z,24.80
2022-07-31T21:52:39.626Z,24.80
2022-07-31T21:54:41.408Z,24.70
2022-07-31T21:56:43.124Z,24.70
2022-07-31T21:58:45.312Z,24.70
2022-07-31T22:00:47.146Z,24.60
2022-07-31T22:02:48.919Z,24.60
2022-07-31T22:05:09.257Z,24.60
2022-07-31T22:07:29.567Z,24.60
2022-07-31T22:09:33.095Z,24.50
2022-07-31T22:11:35.738Z,24.50
2022-07-31T22:13:37.686Z,24.50
2022-07-31T22:15:59.187Z,24.40
2022-07-31T22:18:02.176Z,24.40
2022-07-31T22:20:06.492Z,24.40
2022-07-31T22:22:10.903Z,24.30
2022-07-31T22:24:14.935Z,24.30
2022-07-31T22:26:16.987Z,24.30
2022-07-31T22:28:21.238Z,24.30
2022-07-31T22:30:28.589Z,24.30
2022-07-31T22:32:33.468Z,24.30
2022-07-31T22:34:37.218Z,24.20
2022-07-31T22:36:42.438Z,24.20
2022-07-31T22:38:45.392Z,24.20
2022-07-31T22:40:47.193Z,24.20
2022-07-31T22:42:56.122Z,24.10
2022-07-31T22:44:58.358Z,24.10
2022-07-31T22:47:03.006Z,24.10
2022-07-31T22:49:07.206Z,24.10
2022-07-31T22:51:12.757Z,24.10
2022-07-31T22:53:19.440Z,24.10
2022-07-31T22:55:21.286Z,24.00
2022-07-31T22:57:23.150Z,24.00
2022-07-31T22:59:25.095Z,24.00
2022-07-31T23:01:27.089Z,24.00
2022-07-31T23:03:28.992Z,23.90
2022-07-31T23:06:27.985Z,23.90
2022-07-31T23:07:52.733Z,23.90
2022-07-31T23:09:55.924Z,23.90
2022-07-31T23:12:01.645Z,23.90
2022-07-31T23:14:05.658Z,23.90
2022-07-31T23:16:07.544Z,23.90
2022-07-31T23:18:11.852Z,23.90
2022-07-31T23:20:16.300Z,23.80
2022-07-31T23:22:18.100Z,23.80
2022-07-31T23:24:19.959Z,23.90
2022-07-31T23:26:26.965Z,23.80
2022-07-31T23:28:31.464Z,23.80
2022-07-31T23:30:33.144Z,23.90
2022-07-31T23:32:34.929Z,23.80
2022-07-31T23:34:36.765Z,23.80
2022-07-31T23:36:42.954Z,23.80
2022-07-31T23:38:45.669Z,23.80
2022-07-31T23:40:47.532Z,23.80
2022-07-31T23:42:49.293Z,23.80
2022-07-31T23:44:51.144Z,23.80
2022-07-31T23:46:55.567Z,23.80
2022-07-31T23:48:58.598Z,23.80
2022-07-31T23:51:00.720Z,23.80
2022-07-31T23:53:04.744Z,23.80
2022-07-31T23:55:06.934Z,23.70
2022-07-31T23:57:08.827Z,23.70
2022-07-31T23:59:10.758Z,23.80
